world map with GCM marked

GCM - Airport

This information may not be accurate or current and is not valid for navigation or flight planning. No warranty of fitness for any purpose is made or implied.

flag of Cayman Islands

Donate via PayPal

Additional information is available on the NEW Great Circle Mapper

Location
City:  Grand Cayman, Cayman Islands
Name:Owen Roberts International Airport
ICAO / IATA:MWCR / GCM

Details
Type:Airport (Aerodrome, Airfield)
Use:Public/Civil
Latitude:19°17'34"N (19.292778)
Longitude:81°21'28"W (-81.357749)
Datum:WGS 1984
Elevation:8 ft (2 m)
Runways:1
Longest:7021 × 148 ft (2140 × 45 m)

Time
Timezone:UTC+29:08 (DST+31:08)
Local Time:

Weather
METAR:MWCR  201000Z 06010KT 9999 FEW018 28/26 Q1015
TAF:MWCR  200300Z 2000/2024 CNL

Related Locations
Nearby:
Farthest:CCK: 11928 mi / 19196 km
West Island (Pulau Panjang) [Cocos (Keeling) Islands], CC

Find:

   beyond  
but within

Other Information
Maps:
Sources:

  


 


Great Circle Mapper   Great Circle Mapper
Great Circle Mapper FAQ   Great Circle Mapper FAQ
  Karl's Home Page
KLSē   KLSē Home
   GC on Facebook
Airlines of the World   Airlines of the World
Donate via PayPal


Copyright © 2004-2018, Karl L. Swartz. All rights reserved.
All trademarks mentioned herein belong to their respective owners.

Please see credits for attribution and copyright information.

Karl Swartz <karl@kls2.com>
  Powered by FreeBSD
Valid HTML 4.01!
Labeled with ICRA
hCard Microformat
Geo Microformat